createdAt,value
2023-04-11T06:17:01.128Z,2.30
2023-04-11T06:19:28.110Z,2.20
2023-04-11T06:21:55.069Z,1.90
2023-04-11T06:24:36.398Z,2.83
2023-04-11T06:27:03.906Z,2.27
2023-04-11T06:29:31.218Z,2.07
2023-04-11T06:31:59.163Z,2.43
2023-04-11T06:34:26.489Z,1.97
2023-04-11T06:36:53.513Z,1.70
2023-04-11T06:39:20.424Z,1.80
2023-04-11T06:41:48.130Z,1.97
2023-04-11T06:44:15.181Z,2.30
2023-04-11T06:46:42.126Z,2.17
2023-04-11T06:49:09.790Z,2.60
2023-04-11T06:51:36.981Z,1.80
2023-04-11T06:54:04.230Z,2.20
2023-04-11T06:56:31.234Z,1.83
2023-04-11T06:58:58.298Z,2.53
2023-04-11T07:01:34.141Z,2.17
2023-04-11T07:04:10.043Z,2.10
2023-04-11T07:06:37.143Z,1.63
2023-04-11T07:09:07.232Z,2.63
2023-04-11T07:11:34.207Z,3.30
2023-04-11T07:14:01.208Z,2.77
2023-04-11T07:16:28.723Z,2.77
2023-04-11T07:18:56.098Z,3.03
2023-04-11T07:21:23.124Z,2.73
2023-04-11T07:23:52.956Z,2.27
2023-04-11T07:26:19.827Z,2.43
2023-04-11T07:33:02.503Z,2.10
2023-04-11T07:35:36.939Z,2.47
2023-04-11T07:38:34.313Z,1.70
2023-04-11T07:41:02.776Z,2.03
2023-04-11T07:43:47.345Z,1.80
2023-04-11T07:46:18.361Z,1.53
2023-04-11T07:49:03.254Z,1.53
2023-04-11T07:51:33.727Z,2.57
2023-04-11T07:54:03.914Z,2.30
2023-04-11T07:56:52.569Z,2.07
2023-04-11T07:59:20.088Z,1.60
2023-04-11T08:02:22.994Z,2.23
2023-04-11T08:05:04.776Z,2.87
2023-04-11T08:07:32.421Z,1.97
2023-04-11T08:09:59.275Z,2.90
2023-04-11T08:12:26.101Z,2.93
2023-04-11T08:14:52.966Z,2.73
2023-04-11T08:17:27.651Z,3.97
2023-04-11T08:19:57.831Z,3.63
2023-04-11T08:22:24.744Z,2.40
2023-04-11T08:24:52.304Z,2.57
2023-04-11T08:27:19.132Z,2.80
2023-04-11T08:29:46.165Z,2.30
2023-04-11T08:32:12.998Z,2.20
2023-04-11T08:34:39.891Z,2.77
2023-04-11T08:37:06.744Z,2.60
2023-04-11T08:39:33.605Z,2.30
2023-04-11T08:42:00.743Z,2.50
2023-04-11T08:44:27.819Z,2.50
2023-04-11T08:46:54.642Z,4.07
2023-04-11T08:49:21.482Z,3.07
2023-04-11T08:51:49.628Z,2.20
2023-04-11T08:54:16.628Z,2.03
2023-04-11T08:56:43.651Z,2.37
2023-04-11T08:59:10.545Z,2.67
2023-04-11T09:01:37.675Z,2.40
2023-04-11T09:04:05.898Z,2.80
2023-04-11T09:06:33.951Z,1.67
2023-04-11T09:09:02.859Z,3.07
2023-04-11T09:11:29.750Z,1.73
2023-04-11T09:14:10.059Z,2.63
2023-04-11T09:16:37.472Z,2.53
2023-04-11T09:19:04.320Z,2.23
2023-04-11T09:21:31.535Z,2.10
2023-04-11T09:24:17.251Z,2.57
2023-04-11T09:26:44.100Z,4.20
2023-04-11T09:29:10.952Z,2.37
2023-04-11T09:31:42.653Z,2.60
2023-04-11T09:34:10.159Z,2.07
2023-04-11T09:36:37.337Z,2.50
2023-04-11T09:39:20.119Z,1.90
2023-04-11T09:41:47.248Z,2.57
2023-04-11T09:44:14.517Z,2.90
2023-04-11T09:47:07.747Z,2.67
2023-04-11T09:49:35.658Z,3.67
2023-04-11T09:52:03.460Z,2.60
2023-04-11T09:54:31.367Z,2.33
2023-04-11T09:56:58.828Z,2.33
2023-04-11T09:59:27.052Z,2.87
2023-04-11T10:01:54.260Z,2.70
2023-04-11T10:04:21.347Z,2.20
2023-04-11T10:06:59.866Z,2.90
2023-04-11T10:09:27.703Z,2.57
2023-04-11T10:11:54.524Z,3.90
2023-04-11T10:14:39.680Z,2.40
2023-04-11T10:17:27.389Z,2.20
2023-04-11T10:19:57.593Z,1.80
2023-04-11T10:22:50.864Z,2.07
2023-04-11T10:25:21.296Z,2.37
2023-04-11T10:27:53.780Z,1.97
2023-04-11T10:30:39.407Z,2.03
2023-04-11T10:33:13.110Z,2.40
2023-04-11T10:36:05.925Z,2.83
2023-04-11T10:38:44.825Z,2.77
2023-04-11T10:41:16.641Z,4.10
2023-04-11T10:43:43.871Z,2.23
2023-04-11T10:46:17.625Z,2.50
2023-04-11T10:49:03.794Z,2.10
2023-04-11T10:51:34.374Z,2.10
2023-04-11T10:54:02.095Z,2.73
2023-04-11T10:56:49.107Z,2.10
2023-04-11T10:59:31.576Z,2.70
2023-04-11T11:02:00.859Z,3.07
2023-04-11T11:04:32.610Z,2.47
2023-04-11T11:07:01.808Z,2.47
2023-04-11T11:09:29.113Z,2.40
2023-04-11T11:12:15.906Z,2.80
2023-04-11T11:14:45.647Z,2.40
2023-04-11T11:17:13.536Z,2.70
2023-04-11T11:19:47.646Z,2.37
2023-04-11T11:22:15.562Z,2.50
2023-04-11T11:24:42.419Z,2.97
2023-04-11T11:27:25.266Z,2.40
2023-04-11T11:29:53.129Z,2.67
2023-04-11T11:32:29.236Z,2.87
2023-04-11T11:34:57.913Z,2.67
2023-04-11T11:37:25.035Z,2.90
2023-04-11T11:39:52.170Z,5.63
2023-04-11T11:42:19.278Z,3.43
2023-04-11T11:44:46.497Z,3.33
2023-04-11T11:47:15.573Z,2.53
2023-04-11T11:49:49.575Z,2.30
2023-04-11T11:52:40.787Z,2.90
2023-04-11T11:55:22.618Z,2.63
2023-04-11T11:57:50.245Z,2.60
2023-04-11T12:00:24.871Z,2.60
2023-04-11T12:02:56.033Z,5.77
2023-04-11T12:05:25.344Z,3.53
2023-04-11T12:07:55.951Z,3.70
2023-04-11T12:10:46.134Z,3.40
2023-04-11T12:13:35.105Z,4.03
2023-04-11T12:16:05.095Z,3.80
2023-04-11T12:24:52.342Z,3.07
2023-04-11T12:30:24.060Z,2.57
2023-04-11T12:32:52.230Z,3.57
2023-04-11T12:35:22.623Z,3.20
2023-04-11T12:38:01.790Z,3.87
2023-04-11T12:40:30.066Z,2.87
2023-04-11T12:42:57.665Z,3.70
2023-04-11T12:45:25.820Z,3.30
2023-04-11T12:47:54.289Z,3.13
2023-04-11T12:50:24.284Z,3.60
2023-04-11T12:52:51.783Z,3.97
2023-04-11T12:55:18.836Z,2.90
2023-04-11T12:57:45.836Z,3.50
2023-04-11T13:00:13.641Z,3.73
2023-04-11T13:02:44.541Z,3.70
2023-04-11T13:05:14.661Z,3.77
2023-04-11T13:07:42.996Z,3.87
2023-04-11T13:10:10.581Z,4.80
2023-04-11T13:12:41.637Z,2.97
2023-04-11T13:15:10.057Z,3.03
2023-04-11T13:17:37.159Z,3.00
2023-04-11T13:20:10.451Z,2.23
2023-04-11T13:22:38.521Z,2.80
2023-04-11T13:25:06.049Z,2.57
2023-04-11T13:27:33.368Z,2.47
2023-04-11T13:30:00.275Z,3.33
2023-04-11T13:32:27.331Z,5.33
2023-04-11T13:34:54.172Z,4.40
2023-04-11T13:37:22.269Z,4.03
2023-04-11T13:39:49.068Z,2.57
2023-04-11T13:42:16.218Z,2.30
2023-04-11T13:44:43.135Z,2.57
2023-04-11T13:47:10.021Z,2.57
2023-04-11T13:49:36.860Z,3.30
2023-04-11T13:52:03.789Z,3.37
2023-04-11T13:54:30.607Z,2.77
2023-04-11T13:56:59.307Z,2.53
2023-04-11T13:59:27.542Z,2.63
2023-04-11T14:01:54.535Z,2.40
2023-04-11T14:04:21.983Z,2.37
2023-04-11T14:06:48.915Z,2.37
2023-04-11T14:09:16.141Z,3.20
2023-04-11T14:11:43.018Z,3.30
2023-04-11T14:14:09.980Z,2.83
2023-04-11T14:16:36.868Z,3.00
2023-04-11T14:19:03.781Z,2.93
2023-04-11T14:21:32.100Z,2.80
2023-04-11T14:23:59.277Z,2.97
2023-04-11T14:26:26.320Z,3.43
2023-04-11T14:28:53.465Z,3.40
2023-04-11T14:31:20.474Z,3.30
2023-04-11T14:33:47.779Z,3.03
2023-04-11T14:36:15.051Z,3.43
2023-04-11T14:38:41.954Z,2.87
2023-04-11T14:41:08.972Z,3.10
2023-04-11T14:43:35.831Z,2.97
2023-04-11T14:46:02.734Z,3.30
2023-04-11T14:48:29.671Z,2.80
2023-04-11T14:50:56.499Z,2.10
2023-04-11T14:53:23.376Z,2.73
2023-04-11T14:55:50.236Z,2.40
2023-04-11T14:58:17.312Z,2.83
2023-04-11T15:00:45.031Z,2.70
2023-04-11T15:03:12.634Z,3.00
2023-04-11T15:05:39.698Z,3.83
2023-04-11T15:08:06.667Z,3.63
2023-04-11T15:10:33.501Z,3.03
2023-04-11T15:13:00.606Z,4.10
2023-04-11T15:15:27.507Z,3.60
2023-04-11T15:18:20.223Z,3.30
2023-04-11T15:20:47.048Z,3.30
2023-04-11T15:23:13.867Z,3.20
2023-04-11T15:25:40.917Z,3.43
2023-04-11T15:28:08.840Z,3.53
2023-04-11T15:30:41.454Z,3.63
2023-04-11T15:33:08.700Z,2.90
2023-04-11T15:35:35.575Z,3.57
2023-04-11T15:38:02.348Z,3.43
2023-04-11T15:40:29.350Z,3.40
2023-04-11T15:42:56.149Z,3.40
2023-04-11T15:45:23.255Z,4.03
2023-04-11T15:47:50.311Z,5.30
2023-04-11T15:50:17.834Z,5.23
2023-04-11T15:52:45.178Z,4.30
2023-04-11T15:55:15.297Z,5.07
2023-04-11T15:57:43.171Z,4.77
2023-04-11T16:00:33.254Z,7.40
2023-04-11T16:03:17.314Z,4.77
2023-04-11T16:05:47.755Z,4.17
2023-04-11T16:08:23.750Z,4.27
2023-04-11T16:10:54.955Z,4.10
2023-04-11T16:13:48.577Z,5.30
2023-04-11T16:16:16.542Z,5.63
2023-04-11T16:18:56.971Z,6.50
2023-04-11T16:21:45.316Z,4.63
2023-04-11T16:24:45.849Z,5.23
2023-04-11T16:27:15.962Z,6.40
2023-04-11T16:29:43.609Z,4.87
2023-04-11T16:32:11.512Z,5.97
2023-04-11T16:34:39.287Z,6.07
2023-04-11T16:37:09.317Z,6.50
2023-04-11T16:39:36.186Z,7.33
2023-04-11T16:42:03.484Z,6.43
2023-04-11T16:44:30.347Z,5.20
2023-04-11T16:47:00.284Z,4.10
2023-04-11T16:49:27.115Z,4.40
2023-04-11T16:51:54.393Z,4.47
2023-04-11T16:54:22.710Z,5.37
2023-04-11T16:56:50.248Z,5.43
2023-04-11T16:59:20.740Z,7.37
2023-04-11T17:01:48.497Z,5.93
2023-04-11T17:04:16.155Z,5.10
2023-04-11T17:06:44.640Z,5.30
2023-04-11T17:09:12.338Z,7.10
2023-04-11T17:11:40.542Z,7.93
2023-04-11T17:14:08.617Z,6.43
2023-04-11T17:16:36.449Z,5.27
2023-04-11T17:19:04.373Z,6.13
2023-04-11T17:21:32.983Z,6.20
2023-04-11T17:24:00.676Z,4.93
2023-04-11T17:26:28.061Z,5.33
2023-04-11T17:28:55.978Z,6.13
2023-04-11T17:31:23.452Z,6.27
2023-04-11T17:33:51.588Z,7.23
2023-04-11T17:36:18.909Z,5.43
2023-04-11T17:38:46.595Z,6.50
2023-04-11T17:41:15.359Z,6.33
2023-04-11T17:43:44.134Z,5.67
2023-04-11T17:46:12.690Z,5.57
2023-04-11T17:48:40.301Z,6.13
2023-04-11T17:51:08.807Z,5.90
2023-04-11T17:53:36.857Z,5.23
2023-04-11T17:56:06.474Z,5.83
2023-04-11T17:58:34.376Z,6.33
2023-04-11T18:01:04.399Z,6.57
2023-04-11T18:03:35.644Z,7.10
2023-04-11T18:06:03.609Z,6.37
2023-04-11T18:08:48.950Z,6.27
2023-04-11T18:11:16.752Z,6.07
2023-04-11T18:13:46.982Z,5.83
2023-04-11T18:16:16.061Z,5.23
2023-04-11T18:18:43.433Z,5.57
2023-04-11T18:21:10.753Z,6.77
2023-04-11T18:23:39.222Z,6.97
2023-04-11T18:26:06.575Z,7.17
2023-04-11T18:28:34.415Z,7.10
2023-04-11T18:31:02.057Z,6.03
2023-04-11T18:33:29.390Z,8.47
2023-04-11T18:35:57.255Z,6.37
2023-04-11T18:38:24.516Z,5.03
2023-04-11T18:43:22.633Z,6.60
2023-04-11T18:45:50.768Z,8.17
2023-04-11T18:48:18.979Z,5.57
2023-04-11T18:50:48.965Z,6.37
2023-04-11T18:53:16.668Z,5.30
2023-04-11T18:55:44.181Z,5.40
2023-04-11T18:58:21.071Z,6.27
2023-04-11T19:00:57.490Z,5.57
2023-04-11T19:03:26.917Z,5.43
2023-04-11T19:06:13.776Z,5.20
2023-04-11T19:11:42.425Z,6.03
2023-04-11T19:14:10.849Z,5.43
2023-04-11T19:17:08.259Z,5.33
2023-04-11T19:19:46.600Z,5.20
2023-04-11T19:22:52.859Z,4.47
2023-04-11T19:25:23.898Z,4.80
2023-04-11T19:27:57.965Z,5.30
2023-04-11T19:30:35.692Z,5.17
2023-04-11T19:33:14.965Z,5.10
2023-04-11T19:36:01.147Z,5.17
2023-04-11T19:38:54.315Z,4.60
2023-04-11T19:41:54.189Z,5.73
2023-04-11T19:44:51.261Z,4.40
2023-04-11T19:47:48.826Z,4.53
2023-04-11T19:50:45.216Z,4.40
2023-04-11T19:53:44.888Z,4.97
2023-04-11T19:56:12.782Z,4.13
